createdAt,value
2022-11-02T00:01:41.538Z,97188.13
2022-11-02T00:04:10.079Z,97191.78
2022-11-02T00:06:41.326Z,97192.19
2022-11-02T00:09:09.442Z,97193.78
2022-11-02T00:11:38.298Z,97190.53
2022-11-02T00:14:08.263Z,97188.13
2022-11-02T00:16:40.870Z,97205.38
2022-11-02T00:19:10.382Z,97195.81
2022-11-02T00:21:39.541Z,97203.13
2022-11-02T00:24:10.054Z,97194.81
2022-11-02T00:26:38.928Z,97204.34
2022-11-02T00:29:09.558Z,97198.44
2022-11-02T00:31:37.652Z,97198.66
2022-11-02T00:34:05.776Z,97195.41
2022-11-02T00:36:35.328Z,97209.19
2022-11-02T00:39:03.531Z,97198.06
2022-11-02T00:41:31.832Z,97205.13
2022-11-02T00:44:00.138Z,97208.41
2022-11-02T00:46:29.638Z,97213.47
2022-11-02T00:48:57.994Z,97214.66
2022-11-02T00:51:26.241Z,97220.16
2022-11-02T00:53:54.550Z,97218.53
2022-11-02T00:56:22.781Z,97215.69
2022-11-02T00:58:51.429Z,97214.91
2022-11-02T01:01:19.747Z,97218.94
2022-11-02T01:03:49.490Z,97212.66
2022-11-02T01:06:18.158Z,97212.84
2022-11-02T01:08:46.237Z,97212.66
2022-11-02T01:11:17.456Z,97216.91
2022-11-02T01:13:46.617Z,97214.91
2022-11-02T01:16:15.942Z,97217.09
2022-11-02T01:18:44.453Z,97216.91
2022-11-02T01:21:14.610Z,97212.06
2022-11-02T01:23:43.003Z,97207.38
2022-11-02T01:26:12.469Z,97197.44
2022-11-02T01:28:43.036Z,97197.66
2022-11-02T01:31:12.953Z,97203.53
2022-11-02T01:33:45.811Z,97207.81
2022-11-02T01:36:17.479Z,97210.66
2022-11-02T01:38:45.672Z,97202.72
2022-11-02T01:41:14.024Z,97197.03
2022-11-02T01:43:44.492Z,97187.69
2022-11-02T01:46:21.504Z,97190.13
2022-11-02T01:48:54.341Z,97190.94
2022-11-02T01:51:30.865Z,97181.22
2022-11-02T01:54:03.968Z,97188.09
2022-11-02T01:56:35.783Z,97183.66
2022-11-02T01:59:09.007Z,97169.44
2022-11-02T02:01:37.318Z,97172.69
2022-11-02T02:04:06.458Z,97164.97
2022-11-02T02:06:41.192Z,97165.56
2022-11-02T02:09:10.414Z,97151.56
2022-11-02T02:11:41.037Z,97159.88
2022-11-02T02:14:14.295Z,97158.03
2022-11-02T02:17:20.708Z,97151.72
2022-11-02T02:19:55.334Z,97144.19
2022-11-02T02:23:11.629Z,97151.50
2022-11-02T02:26:06.531Z,97152.75
2022-11-02T02:28:45.811Z,97149.69
2022-11-02T02:31:22.231Z,97150.69
2022-11-02T02:33:59.278Z,97148.63
2022-11-02T02:36:34.854Z,97142.94
2022-11-02T02:39:10.200Z,97141.91
2022-11-02T02:41:42.653Z,97145.53
2022-11-02T02:44:18.203Z,97147.22
2022-11-02T02:46:56.120Z,97146.41
2022-11-02T02:49:49.601Z,97147.22
2022-11-02T02:52:21.521Z,97135.66
2022-11-02T02:54:53.396Z,97137.91
2022-11-02T02:57:24.512Z,97137.69
2022-11-02T02:59:55.081Z,97132.59
2022-11-02T03:02:29.798Z,97124.50
2022-11-02T03:04:58.070Z,97127.53
2022-11-02T03:07:33.759Z,97137.47
2022-11-02T03:10:13.216Z,97134.84
2022-11-02T03:12:51.802Z,97133.41
2022-11-02T03:15:31.635Z,97142.97
2022-11-02T03:18:09.976Z,97144.38
2022-11-02T03:20:54.331Z,97142.78
2022-11-02T03:23:31.099Z,97146.00
2022-11-02T03:26:06.786Z,97145.63
2022-11-02T03:28:59.308Z,97142.56
2022-11-02T03:31:39.117Z,97147.47
2022-11-02T03:34:19.420Z,97147.63
2022-11-02T03:36:54.850Z,97145.41
2022-11-02T03:39:33.846Z,97142.97
2022-11-02T03:42:05.212Z,97149.84
2022-11-02T03:44:40.133Z,97149.47
2022-11-02T03:47:15.481Z,97152.28
2022-11-02T03:49:47.920Z,97155.97
2022-11-02T03:52:22.900Z,97163.25
2022-11-02T03:55:01.080Z,97163.44
2022-11-02T03:57:37.189Z,97172.16
2022-11-02T04:00:11.543Z,97167.91
2022-11-02T04:02:48.848Z,97178.06
2022-11-02T04:05:18.357Z,97170.97
2022-11-02T04:08:09.439Z,97174.63
2022-11-02T04:10:57.868Z,97175.03
2022-11-02T04:13:43.848Z,97170.78
2022-11-02T04:16:12.441Z,97175.06
2022-11-02T04:19:02.202Z,97174.66
2022-11-02T04:21:32.093Z,97172.44
2022-11-02T04:24:19.645Z,97169.78
2022-11-02T04:26:49.301Z,97166.94
2022-11-02T04:29:19.381Z,97173.03
2022-11-02T04:31:47.891Z,97177.09
2022-11-02T04:34:17.361Z,97180.34
2022-11-02T04:36:45.610Z,97180.13
2022-11-02T04:39:14.671Z,97176.28
2022-11-02T04:41:43.118Z,97184.19
2022-11-02T04:44:34.549Z,97176.28
2022-11-02T04:47:10.529Z,97186.47
2022-11-02T04:49:39.940Z,97188.47
2022-11-02T04:52:12.283Z,97193.16
2022-11-02T04:54:46.456Z,97189.06
2022-11-02T04:57:15.183Z,97189.88
2022-11-02T04:59:44.616Z,97181.75
2022-11-02T05:02:12.947Z,97188.47
2022-11-02T05:04:43.812Z,97186.84
2022-11-02T05:07:13.100Z,97178.72
2022-11-02T05:09:42.440Z,97195.78
2022-11-02T05:12:11.969Z,97186.22
2022-11-02T05:14:41.808Z,97191.50
2022-11-02T05:17:10.203Z,97185.16
2022-11-02T05:19:41.458Z,97198.19
2022-11-02T05:22:12.024Z,97197.16
2022-11-02T05:24:40.648Z,97201.44
2022-11-02T05:27:11.368Z,97210.78
2022-11-02T05:29:40.640Z,97202.47
2022-11-02T05:32:11.101Z,97206.94
2022-11-02T05:34:41.314Z,97204.06
2022-11-02T05:37:12.133Z,97206.28
2022-11-02T05:39:40.492Z,97202.63
2022-11-02T05:42:08.794Z,97205.03
2022-11-02T05:44:43.581Z,97211.56
2022-11-02T05:47:11.807Z,97218.91
2022-11-02T05:49:39.923Z,97214.00
2022-11-02T05:52:08.391Z,97212.97
2022-11-02T05:54:39.987Z,97219.47
2022-11-02T05:57:08.520Z,97220.09
2022-11-02T05:59:40.311Z,97216.66
2022-11-02T06:02:09.372Z,97225.19
2022-11-02T06:04:37.533Z,97223.72
2022-11-02T06:07:05.685Z,97232.47
2022-11-02T06:09:33.919Z,97231.47
2022-11-02T06:12:04.751Z,97242.03
2022-11-02T06:14:33.027Z,97234.53
2022-11-02T06:17:01.738Z,97244.06
2022-11-02T06:19:30.554Z,97246.34
2022-11-02T06:21:59.558Z,97247.31
2022-11-02T06:24:27.808Z,97254.25
2022-11-02T06:26:56.454Z,97255.66
2022-11-02T06:29:26.690Z,97257.28
2022-11-02T06:31:55.006Z,97261.97
2022-11-02T06:34:25.541Z,97269.69
2022-11-02T06:36:53.863Z,97268.25
2022-11-02T06:39:22.773Z,97271.50
2022-11-02T06:41:51.221Z,97274.13
2022-11-02T06:44:19.709Z,97275.16
2022-11-02T06:46:50.600Z,97288.97
2022-11-02T06:49:18.749Z,97293.00
2022-11-02T06:51:47.099Z,97294.84
2022-11-02T06:54:15.475Z,97301.16
2022-11-02T06:56:43.698Z,97307.03
2022-11-02T06:59:11.998Z,97312.09
2022-11-02T07:01:40.332Z,97307.63
2022-11-02T07:04:10.166Z,97315.34
2022-11-02T07:06:38.497Z,97319.19
2022-11-02T07:09:06.718Z,97321.44
2022-11-02T07:11:35.099Z,97323.84
2022-11-02T07:14:03.352Z,97320.78
2022-11-02T07:16:31.595Z,97327.69
2022-11-02T07:18:59.812Z,97324.03
2022-11-02T07:21:29.412Z,97331.56
2022-11-02T07:23:57.638Z,97335.41
2022-11-02T07:26:26.573Z,97333.97
2022-11-02T07:28:56.776Z,97338.84
2022-11-02T07:31:27.572Z,97340.00
2022-11-02T07:33:55.868Z,97345.31
2022-11-02T07:36:24.142Z,97343.88
2022-11-02T07:38:53.796Z,97349.13
2022-11-02T07:41:21.992Z,97350.16
2022-11-02T07:43:50.147Z,97354.41
2022-11-02T07:46:34.126Z,97351.78
2022-11-02T07:49:02.339Z,97355.81
2022-11-02T07:51:30.908Z,97357.69
2022-11-02T07:54:01.447Z,97362.16
2022-11-02T07:56:29.566Z,97352.81
2022-11-02T07:58:57.629Z,97355.03
2022-11-02T08:01:25.794Z,97362.97
2022-11-02T08:03:54.700Z,97363.19
2022-11-02T08:06:22.848Z,97360.09
2022-11-02T08:08:56.772Z,97364.53
2022-11-02T08:11:26.249Z,97367.13
2022-11-02T08:13:54.433Z,97364.88
2022-11-02T08:16:22.611Z,97368.53
2022-11-02T08:18:50.835Z,97371.75
2022-11-02T08:21:19.073Z,97372.97
2022-11-02T08:23:47.414Z,97381.09
2022-11-02T08:26:15.651Z,97381.47
2022-11-02T08:28:45.612Z,97377.38
2022-11-02T08:31:16.937Z,97375.72
2022-11-02T08:33:45.589Z,97374.03
2022-11-02T08:36:13.676Z,97372.81
2022-11-02T08:38:42.300Z,97370.94
2022-11-02T08:41:10.376Z,97376.22
2022-11-02T08:43:38.554Z,97371.50
2022-11-02T08:46:14.916Z,97375.19
2022-11-02T08:48:43.776Z,97369.94
2022-11-02T08:51:14.793Z,97379.25
2022-11-02T08:53:45.887Z,97372.50
2022-11-02T08:56:17.015Z,97376.59
2022-11-02T08:58:45.287Z,97372.13
2022-11-02T09:01:15.372Z,97370.81
2022-11-02T09:03:43.698Z,97374.66
2022-11-02T09:06:12.052Z,97374.25
2022-11-02T09:08:40.263Z,97380.75
2022-11-02T09:11:08.393Z,97370.16
2022-11-02T09:13:36.612Z,97372.81
2022-11-02T09:16:04.882Z,97369.72
2022-11-02T09:18:34.494Z,97371.41
2022-11-02T09:21:03.709Z,97370.41
2022-11-02T09:23:32.547Z,97373.06
2022-11-02T09:26:01.045Z,97375.25
2022-11-02T09:28:29.228Z,97370.94
2022-11-02T09:30:57.445Z,97370.50
2022-11-02T09:33:25.585Z,97381.03
2022-11-02T09:35:55.105Z,97383.28
2022-11-02T09:38:23.281Z,97390.41
2022-11-02T09:41:26.994Z,97388.41
2022-11-02T09:44:04.664Z,97391.44
2022-11-02T09:46:40.112Z,97391.97
2022-11-02T09:49:14.965Z,97390.34
2022-11-02T09:51:48.704Z,97392.41
2022-11-02T09:54:21.089Z,97392.19
2022-11-02T09:56:51.084Z,97402.31
2022-11-02T09:59:22.634Z,97412.16
2022-11-02T10:02:02.419Z,97409.03
2022-11-02T10:05:28.405Z,97411.88
2022-11-02T10:08:27.479Z,97404.16
2022-11-02T10:11:08.552Z,97396.59
2022-11-02T10:13:43.506Z,97404.13
2022-11-02T10:16:18.606Z,97395.00
2022-11-02T10:18:50.398Z,97387.41
2022-11-02T10:21:22.368Z,97394.50
2022-11-02T10:23:54.914Z,97392.91
2022-11-02T10:26:28.335Z,97378.56
2022-11-02T10:29:02.790Z,97380.06
2022-11-02T10:31:33.656Z,97387.44
2022-11-02T10:34:19.397Z,97391.47
2022-11-02T10:37:01.580Z,97397.59
2022-11-02T10:39:41.376Z,97390.31
2022-11-02T10:42:35.837Z,97393.69
2022-11-02T10:45:36.748Z,97392.66
2022-11-02T10:48:15.304Z,97383.22
2022-11-02T10:50:58.423Z,97389.94
2022-11-02T10:53:40.723Z,97391.25
2022-11-02T10:56:18.485Z,97396.69
2022-11-02T10:58:56.979Z,97394.75
2022-11-02T11:01:25.593Z,97396.88
2022-11-02T11:04:02.217Z,97384.00
2022-11-02T11:06:37.040Z,97399.94
2022-11-02T11:09:16.906Z,97389.88
2022-11-02T11:11:55.831Z,97391.50
2022-11-02T11:20:35.076Z,97387.38
2022-11-02T11:23:22.159Z,97388.34
2022-11-02T11:26:00.059Z,97392.91
2022-11-02T11:28:33.884Z,97390.75
2022-11-02T11:31:12.854Z,97391.88
2022-11-02T11:33:54.307Z,97396.03
2022-11-02T11:36:31.990Z,97393.06
2022-11-02T11:39:03.827Z,97391.94
2022-11-02T11:41:34.330Z,97385.22
2022-11-02T11:44:04.354Z,97389.44
2022-11-02T11:46:43.960Z,97375.66
2022-11-02T11:49:35.862Z,97370.59
2022-11-02T11:52:24.526Z,97366.19
2022-11-02T11:54:59.937Z,97356.25
2022-11-02T11:57:33.863Z,97362.75
2022-11-02T12:00:28.701Z,97358.31
2022-11-02T12:03:06.348Z,97352.66
2022-11-02T12:05:57.992Z,97347.91
2022-11-02T12:08:45.391Z,97344.34
2022-11-02T12:11:36.379Z,97342.03
2022-11-02T12:14:42.870Z,97344.78
2022-11-02T12:17:35.538Z,97331.50
2022-11-02T12:20:52.366Z,97324.13
2022-11-02T12:23:40.458Z,97337.31
2022-11-02T12:26:25.989Z,97326.56
2022-11-02T12:29:09.297Z,97322.41
2022-11-02T12:31:40.924Z,97323.47
2022-11-02T12:34:46.542Z,97310.06
2022-11-02T12:37:40.476Z,97310.84
2022-11-02T12:43:12.486Z,97317.94
2022-11-02T12:45:50.981Z,97314.09
2022-11-02T12:48:33.114Z,97309.69
2022-11-02T12:51:09.919Z,97310.88
2022-11-02T12:53:47.768Z,97316.09
2022-11-02T12:56:23.703Z,97313.88
2022-11-02T12:58:52.937Z,97316.31
2022-11-02T13:01:28.054Z,97309.03
2022-11-02T13:04:04.600Z,97303.69
2022-11-02T13:06:40.760Z,97308.19
2022-11-02T13:09:14.146Z,97303.69
2022-11-02T13:11:46.109Z,97300.47
2022-11-02T13:14:19.136Z,97301.03
2022-11-02T13:16:53.869Z,97295.72
2022-11-02T13:19:27.559Z,97302.56
2022-11-02T13:21:59.041Z,97301.06
2022-11-02T13:24:34.077Z,97304.44
2022-11-02T13:27:21.807Z,97297.81
2022-11-02T13:29:59.708Z,97294.81
2022-11-02T13:32:34.292Z,97297.69
2022-11-02T13:35:15.145Z,97290.41
2022-11-02T13:37:47.950Z,97282.66
2022-11-02T13:40:26.009Z,97289.50
2022-11-02T13:43:20.177Z,97290.66
2022-11-02T13:46:17.681Z,97292.38
2022-11-02T13:48:58.325Z,97284.19
2022-11-02T13:51:35.947Z,97277.13
2022-11-02T13:54:12.947Z,97282.66
2022-11-02T13:56:42.568Z,97284.75
2022-11-02T13:59:21.412Z,97290.63
2022-11-02T14:01:52.804Z,97285.44
2022-11-02T14:04:21.914Z,97287.41
2022-11-02T14:06:54.768Z,97280.44
2022-11-02T14:09:31.222Z,97277.44
2022-11-02T14:12:40.348Z,97285.06
2022-11-02T14:15:52.984Z,97273.16
2022-11-02T14:18:31.924Z,97276.75
2022-11-02T14:21:21.320Z,97280.91
2022-11-02T14:23:49.404Z,97279.16
2022-11-02T14:26:34.425Z,97280.91
2022-11-02T14:29:35.738Z,97282.13
2022-11-02T14:32:11.464Z,97275.44
2022-11-02T14:34:57.706Z,97272.78
2022-11-02T14:37:48.470Z,97276.47
2022-11-02T14:40:31.346Z,97289.75
2022-11-02T14:43:45.582Z,97284.22
2022-11-02T14:46:32.641Z,97277.31
2022-11-02T14:49:04.218Z,97277.53
2022-11-02T14:51:35.615Z,97274.41
2022-11-02T14:54:07.523Z,97272.44
2022-11-02T14:56:51.228Z,97277.06
2022-11-02T14:59:26.561Z,97277.88
2022-11-02T15:01:58.859Z,97267.91
2022-11-02T15:04:29.289Z,97268.25
2022-11-02T15:07:00.533Z,97264.19
2022-11-02T15:09:59.525Z,97264.69
2022-11-02T15:12:42.101Z,97259.22
2022-11-02T15:15:32.746Z,97260.69
2022-11-02T15:18:23.527Z,97254.19
2022-11-02T15:21:26.710Z,97253.47
2022-11-02T15:24:17.389Z,97248.66
2022-11-02T15:26:52.728Z,97254.84
2022-11-02T15:29:42.106Z,97244.94
2022-11-02T15:32:22.098Z,97244.44
2022-11-02T15:34:53.071Z,97246.09
2022-11-02T15:37:25.912Z,97238.91
2022-11-02T15:39:56.434Z,97241.31
2022-11-02T15:42:40.081Z,97249.38
2022-11-02T15:45:46.782Z,97257.41
2022-11-02T15:48:36.845Z,97248.44
2022-11-02T15:51:19.148Z,97247.50
2022-11-02T15:54:05.294Z,97242.63
2022-11-02T15:56:48.518Z,97245.03
2022-11-02T15:59:52.488Z,97246.19
2022-11-02T16:02:27.398Z,97253.00
2022-11-02T16:05:01.003Z,97246.75
2022-11-02T16:07:38.277Z,97250.94
2022-11-02T16:10:25.742Z,97247.53
2022-11-02T16:13:02.068Z,97248.22
2022-11-02T16:15:30.755Z,97241.75
2022-11-02T16:17:59.595Z,97244.22
2022-11-02T16:20:31.884Z,97247.81
2022-11-02T16:23:02.397Z,97244.97
2022-11-02T16:25:39.716Z,97243.13
2022-11-02T16:28:20.505Z,97243.13
2022-11-02T16:31:06.916Z,97243.94
2022-11-02T16:33:41.087Z,97240.69
2022-11-02T16:36:13.509Z,97240.28
2022-11-02T16:38:49.181Z,97240.09
2022-11-02T16:41:18.345Z,97239.19
2022-11-02T16:43:47.685Z,97239.69
2022-11-02T16:46:18.180Z,97237.44
2022-11-02T16:49:16.627Z,97232.56
2022-11-02T16:51:55.337Z,97228.56
2022-11-02T16:54:41.668Z,97226.97
2022-11-02T16:57:17.996Z,97233.25
2022-11-02T16:59:52.844Z,97239.22
2022-11-02T17:02:32.766Z,97223.81
2022-11-02T17:05:05.840Z,97226.69
2022-11-02T17:07:40.122Z,97221.81
2022-11-02T17:10:10.325Z,97225.06
2022-11-02T17:12:44.670Z,97225.88
2022-11-02T17:15:17.872Z,97219.38
2022-11-02T17:17:46.843Z,97219.81
2022-11-02T17:20:24.360Z,97214.56
2022-11-02T17:22:58.671Z,97217.25
2022-11-02T17:25:28.897Z,97224.63
2022-11-02T17:27:59.741Z,97228.31
2022-11-02T17:30:48.194Z,97221.41
2022-11-02T17:33:28.146Z,97210.44
2022-11-02T17:35:58.335Z,97209.06
2022-11-02T17:38:28.935Z,97216.47
2022-11-02T17:40:57.309Z,97218.16
2022-11-02T17:43:24.523Z,97212.50
2022-11-02T17:45:57.529Z,97204.56
2022-11-02T17:48:28.424Z,97197.09
2022-11-02T17:50:59.557Z,97207.72
2022-11-02T17:53:29.193Z,97205.94
2022-11-02T17:55:57.449Z,97197.03
2022-11-02T17:58:25.720Z,97199.13
2022-11-02T18:00:55.399Z,97194.66
2022-11-02T18:03:29.861Z,97191.81
2022-11-02T18:06:00.615Z,97197.72
2022-11-02T18:08:30.481Z,97191.22
2022-11-02T18:10:58.671Z,97194.47
2022-11-02T18:13:28.080Z,97194.28
2022-11-02T18:15:57.786Z,97186.56
2022-11-02T18:18:26.765Z,97186.00
2022-11-02T18:20:54.847Z,97188.03
2022-11-02T18:23:22.981Z,97185.63
2022-11-02T18:25:55.186Z,97184.22
2022-11-02T18:28:26.449Z,97183.63
2022-11-02T18:30:54.618Z,97175.50
2022-11-02T18:33:22.843Z,97179.16
2022-11-02T18:35:51.006Z,97177.53
2022-11-02T18:38:19.140Z,97172.25
2022-11-02T18:40:47.206Z,97170.66
2022-11-02T18:43:16.577Z,97183.63
2022-11-02T18:45:44.675Z,97177.13
2022-11-02T18:48:12.768Z,97169.41
2022-11-02T18:50:40.865Z,97171.47
2022-11-02T18:53:08.943Z,97167.63
2022-11-02T18:55:39.425Z,97160.50
2022-11-02T18:58:08.058Z,97165.38
2022-11-02T19:00:37.729Z,97165.78
2022-11-02T19:03:07.045Z,97154.41
2022-11-02T19:05:52.744Z,97158.06
2022-11-02T19:08:38.401Z,97155.03
2022-11-02T19:11:08.735Z,97165.38
2022-11-02T19:13:37.054Z,97170.88
2022-11-02T19:16:10.434Z,97167.00
2022-11-02T19:18:38.554Z,97163.75
2022-11-02T19:21:06.911Z,97158.09
2022-11-02T19:23:35.162Z,97170.84
2022-11-02T19:26:03.254Z,97163.75
2022-11-02T19:28:32.351Z,97166.41
2022-11-02T19:31:00.501Z,97165.38
2022-11-02T19:33:31.098Z,97159.91
2022-11-02T19:35:59.928Z,97160.94
2022-11-02T19:38:28.271Z,97156.44
2022-11-02T19:41:03.029Z,97161.72
2022-11-02T19:43:31.292Z,97164.56
2022-11-02T19:46:03.091Z,97163.75
2022-11-02T19:48:35.464Z,97163.13
2022-11-02T19:51:09.145Z,97158.88
2022-11-02T19:53:39.135Z,97157.88
2022-11-02T19:56:10.972Z,97155.03
2022-11-02T19:58:40.310Z,97157.06
2022-11-02T20:01:10.261Z,97155.25
2022-11-02T20:03:40.382Z,97143.69
2022-11-02T20:06:11.229Z,97145.91
2022-11-02T20:08:39.729Z,97144.06
2022-11-02T20:11:09.915Z,97145.03
2022-11-02T20:13:41.089Z,97140.59
2022-11-02T20:16:11.413Z,97141.00
2022-11-02T20:18:42.867Z,97143.03
2022-11-02T20:21:14.896Z,97135.91
2022-11-02T20:23:44.099Z,97144.06
2022-11-02T20:26:15.146Z,97141.59
2022-11-02T20:28:47.300Z,97138.16
2022-11-02T20:31:18.259Z,97134.69
2022-11-02T20:33:48.753Z,97137.31
2022-11-02T20:36:17.441Z,97132.66
2022-11-02T20:38:45.849Z,97139.13
2022-11-02T20:41:16.113Z,97140.75
2022-11-02T20:43:47.285Z,97139.94
2022-11-02T20:49:20.823Z,97133.59
2022-11-02T20:51:51.435Z,97123.38
2022-11-02T20:54:20.378Z,97127.81
2022-11-02T20:56:49.447Z,97125.63
2022-11-02T20:59:18.043Z,97126.47
2022-11-02T21:01:46.603Z,97124.25
2022-11-02T21:04:20.667Z,97128.50
2022-11-02T21:06:49.740Z,97120.59
2022-11-02T21:09:18.343Z,97114.16
2022-11-02T21:12:04.289Z,97124.06
2022-11-02T21:14:32.496Z,97125.47
2022-11-02T21:17:02.512Z,97117.38
2022-11-02T21:19:32.004Z,97125.25
2022-11-02T21:22:00.803Z,97120.78
2022-11-02T21:24:29.620Z,97117.56
2022-11-02T21:26:57.834Z,97117.56
2022-11-02T21:29:26.426Z,97109.06
2022-11-02T21:31:54.590Z,97104.00
2022-11-02T21:34:22.678Z,97099.13
2022-11-02T21:36:52.153Z,97096.63
2022-11-02T21:39:20.302Z,97102.47
2022-11-02T21:41:48.362Z,97087.25
2022-11-02T21:44:16.537Z,97085.47
2022-11-02T21:46:44.606Z,97084.81
2022-11-02T21:49:15.257Z,97085.97
2022-11-02T21:51:43.604Z,97089.28
2022-11-02T21:54:13.028Z,97078.38
2022-11-02T21:56:41.285Z,97075.50
2022-11-02T21:59:10.317Z,97075.13
2022-11-02T22:01:49.040Z,97070.47
2022-11-02T22:04:25.241Z,97080.00
2022-11-02T22:06:54.012Z,97083.88
2022-11-02T22:09:24.253Z,97077.81
2022-11-02T22:12:14.030Z,97076.19
2022-11-02T22:14:43.967Z,97068.91
2022-11-02T22:17:22.181Z,97061.41
2022-11-02T22:20:00.370Z,97064.44
2022-11-02T22:22:28.626Z,97070.91
2022-11-02T22:24:58.102Z,97062.00
2022-11-02T22:27:27.609Z,97065.25
2022-11-02T22:29:55.680Z,97060.78
2022-11-02T22:32:23.740Z,97060.56
2022-11-02T22:34:51.790Z,97060.56
2022-11-02T22:37:37.185Z,97053.50
2022-11-02T22:40:07.808Z,97051.91
2022-11-02T22:42:39.736Z,97050.88
2022-11-02T22:45:11.947Z,97052.94
2022-11-02T22:47:40.040Z,97044.44
2022-11-02T22:50:09.250Z,97037.53
2022-11-02T22:52:37.290Z,97032.50
2022-11-02T22:55:07.889Z,97031.66
2022-11-02T22:57:35.989Z,97031.69
2022-11-02T23:00:05.913Z,97022.16
2022-11-02T23:02:34.026Z,97035.53
2022-11-02T23:05:02.091Z,97032.31
2022-11-02T23:07:30.220Z,97029.25
2022-11-02T23:09:58.326Z,97027.63
2022-11-02T23:12:26.729Z,97031.28
2022-11-02T23:14:54.817Z,97029.44
2022-11-02T23:17:22.880Z,97032.06
2022-11-02T23:19:50.009Z,97033.09
2022-11-02T23:22:35.572Z,97030.25
2022-11-02T23:25:16.924Z,97039.97
2022-11-02T23:28:05.625Z,97036.56
2022-11-02T23:30:53.888Z,97030.84
2022-11-02T23:33:23.893Z,97029.44
2022-11-02T23:36:09.840Z,97029.88
2022-11-02T23:38:56.114Z,97022.38
2022-11-02T23:41:24.410Z,97022.34
2022-11-02T23:44:11.326Z,97020.75
2022-11-02T23:46:39.718Z,97026.81
2022-11-02T23:49:07.942Z,97014.84
2022-11-02T23:51:50.178Z,97016.91
2022-11-02T23:54:36.013Z,97015.44
2022-11-02T23:57:04.353Z,97017.69
2022-11-02T23:59:33.868Z,97012.63
